createdAt,value
2017-09-01T00:00:13.900Z,21.27
2017-09-01T00:02:41.416Z,22.83
2017-09-01T00:05:08.980Z,23.60
2017-09-01T00:07:36.504Z,23.70
2017-09-01T00:10:04.001Z,22.83
2017-09-01T00:12:31.547Z,22.70
2017-09-01T00:14:59.078Z,25.40
2017-09-01T00:17:27.355Z,21.97
2017-09-01T00:19:54.902Z,22.87
2017-09-01T00:22:23.191Z,22.70
2017-09-01T00:24:50.696Z,22.17
2017-09-01T00:27:18.224Z,25.80
2017-09-01T00:29:45.743Z,24.53
2017-09-01T00:32:13.460Z,23.53
2017-09-01T00:34:40.961Z,25.50
2017-09-01T00:37:08.483Z,25.67
2017-09-01T00:39:36.003Z,24.10
2017-09-01T00:42:03.592Z,25.87
2017-09-01T00:44:31.137Z,28.80
2017-09-01T00:46:58.658Z,26.87
2017-09-01T00:49:26.160Z,23.97
2017-09-01T00:51:53.702Z,24.43
2017-09-01T00:54:21.282Z,28.67
2017-09-01T00:56:48.816Z,24.63
2017-09-01T00:59:16.401Z,27.20
2017-09-01T01:01:43.918Z,29.60
2017-09-01T01:04:11.463Z,27.10
2017-09-01T01:06:38.974Z,28.43
2017-09-01T01:09:06.527Z,30.07
2017-09-01T01:11:34.046Z,30.20
2017-09-01T01:14:01.549Z,27.00
2017-09-01T01:16:29.086Z,26.73
2017-09-01T01:18:56.597Z,26.83
2017-09-01T01:21:24.138Z,25.77
2017-09-01T01:23:51.660Z,24.43
2017-09-01T01:26:19.192Z,24.93
2017-09-01T01:28:46.711Z,23.83
2017-09-01T01:31:14.207Z,24.03
2017-09-01T01:33:41.819Z,26.70
2017-09-01T01:36:10.087Z,24.93
2017-09-01T01:38:37.583Z,27.23
2017-09-01T01:41:05.134Z,24.03
2017-09-01T01:43:32.637Z,28.17
2017-09-01T01:46:00.154Z,28.07
2017-09-01T01:48:27.695Z,25.10
2017-09-01T01:50:55.209Z,27.67
2017-09-01T01:53:22.778Z,27.00
2017-09-01T01:55:50.300Z,27.60
2017-09-01T01:58:17.925Z,28.10
2017-09-01T02:00:45.452Z,27.37
2017-09-01T02:03:12.968Z,30.23
2017-09-01T02:05:40.491Z,29.27
2017-09-01T02:08:08.885Z,27.77
2017-09-01T02:10:36.405Z,27.60
2017-09-01T02:13:03.950Z,25.00
2017-09-01T02:15:31.466Z,29.47
2017-09-01T02:17:59.010Z,30.47
2017-09-01T02:20:27.431Z,28.80
2017-09-01T02:22:54.956Z,28.17
2017-09-01T02:25:22.470Z,26.87
2017-09-01T02:27:49.977Z,28.43
2017-09-01T02:30:17.522Z,31.40
2017-09-01T02:32:45.028Z,30.30
2017-09-01T02:35:12.573Z,31.07
2017-09-01T02:37:40.091Z,29.13
2017-09-01T02:40:07.610Z,26.27
2017-09-01T02:42:35.155Z,28.00
2017-09-01T02:45:02.669Z,26.30
2017-09-01T02:47:30.202Z,25.87
2017-09-01T02:49:57.753Z,26.10
2017-09-01T02:52:25.256Z,28.40
2017-09-01T02:54:52.778Z,27.47
2017-09-01T02:57:20.304Z,28.73
2017-09-01T02:59:47.799Z,26.50
2017-09-01T03:02:15.328Z,26.10
2017-09-01T03:04:42.846Z,26.10
2017-09-01T03:07:10.371Z,26.73
2017-09-01T03:09:37.914Z,26.17
2017-09-01T03:12:06.233Z,26.10
2017-09-01T03:14:33.776Z,29.03
2017-09-01T03:17:01.352Z,22.90
2017-09-01T03:19:28.912Z,22.20
2017-09-01T03:21:56.445Z,26.20
2017-09-01T03:24:23.948Z,22.37
2017-09-01T03:26:51.477Z,24.70
2017-09-01T03:29:18.980Z,25.90
2017-09-01T03:31:46.511Z,27.97
2017-09-01T03:34:14.023Z,25.30
2017-09-01T03:36:41.619Z,28.70
2017-09-01T03:39:09.144Z,29.90
2017-09-01T03:41:36.750Z,30.93
2017-09-01T03:44:04.303Z,26.03
2017-09-01T03:46:31.803Z,24.17
2017-09-01T03:48:59.299Z,25.00
2017-09-01T03:51:26.846Z,23.07
2017-09-01T03:53:54.433Z,25.43
2017-09-01T03:56:21.940Z,22.13
2017-09-01T03:58:49.459Z,25.50
2017-09-01T04:01:16.982Z,22.63
2017-09-01T04:03:44.534Z,24.20
2017-09-01T04:06:12.059Z,23.20
2017-09-01T04:08:39.566Z,20.87
2017-09-01T04:11:07.138Z,22.67
2017-09-01T04:13:34.657Z,24.93
2017-09-01T04:16:02.170Z,24.10
2017-09-01T04:18:29.836Z,22.43
2017-09-01T04:20:57.340Z,26.30
2017-09-01T04:23:24.860Z,25.10
2017-09-01T04:25:52.364Z,24.70
2017-09-01T04:28:19.918Z,24.90
2017-09-01T04:30:47.438Z,25.17
2017-09-01T04:33:14.954Z,25.60
2017-09-01T04:35:42.476Z,26.67
2017-09-01T04:38:09.994Z,25.50
2017-09-01T04:40:37.500Z,27.13
2017-09-01T04:43:05.027Z,29.80
2017-09-01T04:45:32.556Z,28.60
2017-09-01T04:48:00.086Z,28.25
2017-09-01T04:50:27.626Z,24.10
2017-09-01T04:52:55.237Z,22.20
2017-09-01T04:55:22.801Z,23.47
2017-09-01T04:57:50.318Z,22.37
2017-09-01T05:00:18.602Z,23.93
2017-09-01T05:02:46.176Z,24.17
2017-09-01T05:05:13.671Z,25.00
2017-09-01T05:07:41.206Z,25.20
2017-09-01T05:10:08.728Z,25.50
2017-09-01T05:12:36.233Z,26.43
2017-09-01T05:15:03.883Z,26.27
2017-09-01T05:17:32.090Z,27.17
2017-09-01T05:19:59.601Z,28.40
2017-09-01T05:22:27.131Z,27.57
2017-09-01T05:24:55.414Z,26.87
2017-09-01T05:27:22.957Z,26.60
2017-09-01T05:29:50.465Z,26.00
2017-09-01T05:32:17.999Z,26.53
2017-09-01T05:34:45.513Z,23.57
2017-09-01T05:37:13.025Z,27.03
2017-09-01T05:39:40.566Z,25.50
2017-09-01T05:42:08.071Z,24.30
2017-09-01T05:44:35.591Z,24.57
2017-09-01T05:47:03.123Z,25.40
2017-09-01T05:49:30.634Z,27.30
2017-09-01T05:51:58.164Z,28.33
2017-09-01T05:54:25.686Z,25.63
2017-09-01T05:56:53.219Z,27.70
2017-09-01T05:59:20.748Z,26.33
2017-09-01T06:01:48.267Z,29.80
2017-09-01T06:04:15.791Z,27.37
2017-09-01T06:06:43.296Z,25.80
2017-09-01T06:09:10.809Z,23.47
2017-09-01T06:11:38.509Z,20.40
2017-09-01T06:14:06.044Z,23.10
2017-09-01T06:16:33.550Z,22.90
2017-09-01T06:19:01.106Z,21.90
2017-09-01T06:21:28.609Z,22.80
2017-09-01T06:23:56.130Z,23.67
2017-09-01T06:26:23.673Z,22.83
2017-09-01T06:28:51.210Z,23.33
2017-09-01T06:31:18.731Z,19.53
2017-09-01T06:33:46.259Z,20.67
2017-09-01T06:36:13.810Z,19.97
2017-09-01T06:38:41.311Z,15.90
2017-09-01T06:41:08.811Z,18.50
2017-09-01T06:43:36.332Z,16.07
2017-09-01T06:46:03.854Z,17.70
2017-09-01T06:48:32.271Z,16.00
2017-09-01T06:50:59.778Z,15.57
2017-09-01T06:53:27.284Z,15.13
2017-09-01T06:55:54.820Z,14.60
2017-09-01T06:58:22.342Z,13.90
2017-09-01T07:00:49.863Z,13.50
2017-09-01T07:03:17.392Z,13.03
2017-09-01T07:05:44.968Z,14.30
2017-09-01T07:08:12.487Z,14.00
2017-09-01T07:10:40.796Z,13.20
2017-09-01T07:13:08.362Z,13.70
2017-09-01T07:15:35.882Z,12.50
2017-09-01T07:18:03.477Z,13.47
2017-09-01T07:20:30.995Z,12.97
2017-09-01T07:22:58.546Z,12.33
2017-09-01T07:25:26.074Z,13.20
2017-09-01T07:27:53.628Z,12.33
2017-09-01T07:30:21.179Z,10.83
2017-09-01T07:32:48.718Z,11.40
2017-09-01T07:35:16.291Z,11.97
2017-09-01T07:37:43.840Z,13.30
2017-09-01T07:40:11.346Z,11.47
2017-09-01T07:42:38.893Z,10.10
2017-09-01T07:45:06.400Z,10.43
2017-09-01T07:47:33.903Z,10.23
2017-09-01T07:50:01.545Z,10.97
2017-09-01T07:52:29.105Z,10.80
2017-09-01T07:54:56.603Z,9.90
2017-09-01T07:57:24.127Z,10.63
2017-09-01T07:59:51.646Z,11.27
2017-09-01T08:02:19.180Z,9.77
2017-09-01T08:04:46.679Z,10.90
2017-09-01T08:07:14.180Z,10.80
2017-09-01T08:09:41.813Z,10.70
2017-09-01T08:12:09.317Z,11.17
2017-09-01T08:14:36.854Z,11.47
2017-09-01T08:17:04.370Z,10.03
2017-09-01T08:19:31.918Z,10.57
2017-09-01T08:21:59.420Z,10.50
2017-09-01T08:24:26.924Z,12.17
2017-09-01T08:26:54.522Z,12.83
2017-09-01T08:29:22.026Z,11.37
2017-09-01T08:31:49.570Z,11.67
2017-09-01T08:34:17.082Z,11.07
2017-09-01T08:36:44.603Z,11.60
2017-09-01T08:39:12.137Z,11.10
2017-09-01T08:41:39.639Z,12.07
2017-09-01T08:44:07.932Z,10.43
2017-09-01T08:46:35.452Z,11.40
2017-09-01T08:49:02.956Z,11.80
2017-09-01T08:51:30.475Z,13.10
2017-09-01T08:53:57.976Z,11.97
2017-09-01T08:56:25.522Z,12.20
2017-09-01T08:58:53.047Z,11.63
2017-09-01T09:01:20.547Z,11.07
2017-09-01T09:03:48.079Z,10.53
2017-09-01T09:06:15.584Z,11.53
2017-09-01T09:08:43.091Z,10.53
2017-09-01T09:11:10.623Z,10.77
2017-09-01T09:13:38.130Z,10.40
2017-09-01T09:16:05.660Z,9.23
2017-09-01T09:18:33.263Z,11.00
2017-09-01T09:21:00.777Z,9.87
2017-09-01T09:23:28.291Z,9.73
2017-09-01T09:25:55.810Z,10.27
2017-09-01T09:28:23.362Z,10.00
2017-09-01T09:30:50.864Z,9.60
2017-09-01T09:33:18.367Z,9.33
2017-09-01T09:35:45.976Z,9.23
2017-09-01T09:38:13.494Z,10.37
2017-09-01T09:40:41.042Z,9.53
2017-09-01T09:43:08.579Z,10.00
2017-09-01T09:45:36.099Z,9.03
2017-09-01T09:48:03.624Z,9.67
2017-09-01T09:50:31.146Z,9.20
2017-09-01T09:52:58.672Z,8.30
2017-09-01T09:55:26.175Z,8.33
2017-09-01T09:57:53.718Z,8.37
2017-09-01T10:00:21.230Z,9.60
2017-09-01T10:02:48.750Z,9.73
2017-09-01T10:05:16.294Z,9.40
2017-09-01T10:07:43.796Z,9.63
2017-09-01T10:10:11.315Z,9.40
2017-09-01T10:12:38.837Z,9.13
2017-09-01T10:15:06.364Z,9.10
2017-09-01T10:17:33.911Z,8.00
2017-09-01T10:20:01.426Z,7.50
2017-09-01T10:22:28.924Z,8.27
2017-09-01T10:24:56.462Z,8.03
2017-09-01T10:27:23.960Z,8.40
2017-09-01T10:29:51.488Z,7.87
2017-09-01T10:32:18.999Z,8.17
2017-09-01T10:34:46.495Z,8.23
2017-09-01T10:37:14.035Z,6.83
2017-09-01T10:39:41.550Z,7.10
2017-09-01T10:42:09.097Z,6.00
2017-09-01T10:44:36.606Z,5.73
2017-09-01T10:47:04.103Z,4.90
2017-09-01T10:49:43.668Z,5.33
2017-09-01T10:52:22.968Z,4.93
2017-09-01T10:55:02.417Z,7.43
2017-09-01T10:57:41.816Z,6.97
2017-09-01T11:00:09.359Z,6.73
2017-09-01T11:02:36.874Z,5.60
2017-09-01T11:05:04.373Z,5.87
2017-09-01T11:07:31.914Z,4.80
2017-09-01T11:09:59.412Z,5.47
2017-09-01T11:12:26.926Z,5.20
2017-09-01T11:14:54.493Z,5.60
2017-09-01T11:17:21.992Z,5.70
2017-09-01T11:19:55.199Z,5.57
2017-09-01T11:22:28.527Z,6.10
2017-09-01T11:24:56.827Z,6.00
2017-09-01T11:27:24.340Z,6.20
2017-09-01T11:29:51.867Z,5.93
2017-09-01T11:32:19.364Z,6.00
2017-09-01T11:34:46.890Z,6.13
2017-09-01T11:37:14.424Z,5.00
2017-09-01T11:39:41.920Z,4.70
2017-09-01T11:42:09.436Z,4.90
2017-09-01T11:44:36.982Z,5.00
2017-09-01T11:47:04.487Z,4.80
2017-09-01T11:49:32.002Z,5.33
2017-09-01T11:51:59.541Z,4.23
2017-09-01T11:54:27.067Z,4.53
2017-09-01T11:56:54.573Z,4.80
2017-09-01T11:59:22.882Z,4.40
2017-09-01T12:01:50.397Z,4.20
2017-09-01T12:04:17.893Z,4.20
2017-09-01T12:06:45.421Z,4.30
2017-09-01T12:09:13.692Z,3.73
2017-09-01T12:11:41.242Z,4.13
2017-09-01T12:14:08.744Z,4.30
2017-09-01T12:16:36.271Z,4.60
2017-09-01T12:19:03.792Z,5.20
2017-09-01T12:21:31.308Z,4.70
2017-09-01T12:23:58.828Z,4.63
2017-09-01T12:26:26.332Z,5.17
2017-09-01T12:28:53.892Z,5.03
2017-09-01T12:31:21.410Z,6.87
2017-09-01T12:33:48.926Z,5.47
2017-09-01T12:36:16.448Z,6.57
2017-09-01T12:38:43.967Z,6.10
2017-09-01T12:41:11.498Z,7.00
2017-09-01T12:43:39.000Z,6.67
2017-09-01T12:46:06.500Z,5.60
2017-09-01T12:48:34.038Z,5.57
2017-09-01T12:51:01.548Z,4.93
2017-09-01T12:53:29.040Z,5.60
2017-09-01T12:55:56.587Z,5.30
2017-09-01T12:58:24.856Z,5.60
2017-09-01T13:00:52.356Z,5.60
2017-09-01T13:03:19.926Z,6.40
2017-09-01T13:05:47.439Z,6.23
2017-09-01T13:08:14.960Z,6.40
2017-09-01T13:10:42.460Z,6.10
2017-09-01T13:13:09.984Z,6.57
2017-09-01T13:15:37.503Z,6.70
2017-09-01T13:18:05.001Z,6.07
2017-09-01T13:20:32.548Z,5.70
2017-09-01T13:23:00.057Z,7.83
2017-09-01T13:25:27.560Z,6.80
2017-09-01T13:27:55.094Z,6.83
2017-09-01T13:30:22.596Z,6.57
2017-09-01T13:32:50.116Z,5.70
2017-09-01T13:35:17.639Z,6.50
2017-09-01T13:37:45.160Z,6.70
2017-09-01T13:40:12.674Z,6.70
2017-09-01T13:42:40.976Z,7.93
2017-09-01T13:45:08.489Z,6.40
2017-09-01T13:47:36.006Z,5.60
2017-09-01T13:50:03.526Z,5.93
2017-09-01T13:52:31.061Z,6.23
2017-09-01T13:54:58.807Z,5.50
2017-09-01T13:57:26.350Z,5.70
2017-09-01T13:59:53.911Z,5.40
2017-09-01T14:02:21.429Z,6.37
2017-09-01T14:04:48.960Z,5.13
2017-09-01T14:07:16.462Z,5.80
2017-09-01T14:09:44.004Z,5.70
2017-09-01T14:12:11.508Z,5.60
2017-09-01T14:14:39.012Z,5.83
2017-09-01T14:17:06.539Z,6.90
2017-09-01T14:19:34.040Z,6.13
2017-09-01T14:22:01.558Z,6.37
2017-09-01T14:24:29.077Z,6.00
2017-09-01T14:26:56.578Z,7.57
2017-09-01T14:29:24.116Z,6.87
2017-09-01T14:31:51.626Z,6.93
2017-09-01T14:34:19.162Z,6.80
2017-09-01T14:36:46.667Z,7.00
2017-09-01T14:39:14.207Z,8.17
2017-09-01T14:41:41.724Z,10.40
2017-09-01T14:44:09.243Z,11.33
2017-09-01T14:46:36.791Z,12.40
2017-09-01T14:49:04.314Z,12.27
2017-09-01T14:51:31.861Z,14.40
2017-09-01T14:53:59.364Z,12.60
2017-09-01T14:56:26.948Z,12.50
2017-09-01T14:58:54.484Z,12.70
2017-09-01T15:01:21.987Z,13.00
2017-09-01T15:03:49.534Z,13.57
2017-09-01T15:06:17.046Z,12.63
2017-09-01T15:08:44.625Z,12.20
2017-09-01T15:11:12.147Z,12.00
2017-09-01T15:13:40.463Z,12.27
2017-09-01T15:16:08.003Z,11.33
2017-09-01T15:18:35.522Z,10.27
2017-09-01T15:21:03.053Z,10.30
2017-09-01T15:23:30.596Z,9.97
2017-09-01T15:25:58.123Z,10.13
2017-09-01T15:28:25.674Z,8.80
2017-09-01T15:30:53.190Z,9.17
2017-09-01T15:33:20.699Z,9.40
2017-09-01T15:35:48.229Z,9.50
2017-09-01T15:38:15.746Z,8.97
2017-09-01T15:40:43.283Z,8.80
2017-09-01T15:43:10.802Z,9.37
2017-09-01T15:45:38.300Z,9.27
2017-09-01T15:48:05.834Z,9.80
2017-09-01T15:50:33.335Z,10.10
2017-09-01T15:53:00.872Z,9.27
2017-09-01T15:55:28.376Z,11.10
2017-09-01T15:57:55.903Z,10.10
2017-09-01T16:00:23.450Z,10.20
2017-09-01T16:02:50.974Z,9.90
2017-09-01T16:05:18.520Z,9.80
2017-09-01T16:07:46.044Z,9.23
2017-09-01T16:10:13.576Z,8.90
2017-09-01T16:12:41.095Z,10.23
2017-09-01T16:15:08.596Z,9.90
2017-09-01T16:17:36.128Z,8.97
2017-09-01T16:20:03.642Z,8.90
2017-09-01T16:22:31.194Z,9.67
2017-09-01T16:24:58.715Z,9.97
2017-09-01T16:27:26.994Z,9.93
2017-09-01T16:29:54.525Z,9.10
2017-09-01T16:32:22.042Z,10.33
2017-09-01T16:34:49.589Z,10.43
2017-09-01T16:37:17.088Z,9.67
2017-09-01T16:39:45.368Z,9.40
2017-09-01T16:42:12.923Z,9.57
2017-09-01T16:44:40.425Z,8.97
2017-09-01T16:47:08.715Z,9.30
2017-09-01T16:49:36.272Z,12.50
2017-09-01T16:52:03.803Z,9.53
2017-09-01T16:54:31.320Z,10.50
2017-09-01T16:56:58.851Z,10.80
2017-09-01T16:59:26.375Z,11.13
2017-09-01T17:01:53.898Z,11.33
2017-09-01T17:04:21.445Z,11.90
2017-09-01T17:06:48.958Z,11.73
2017-09-01T17:09:16.560Z,11.70
2017-09-01T17:11:44.106Z,12.60
2017-09-01T17:14:11.608Z,12.97
2017-09-01T17:16:39.130Z,13.40
2017-09-01T17:19:06.651Z,12.17
2017-09-01T17:21:34.153Z,12.10
2017-09-01T17:24:01.675Z,13.93
2017-09-01T17:26:29.194Z,12.83
2017-09-01T17:28:56.737Z,14.70
2017-09-01T17:31:24.244Z,13.20
2017-09-01T17:33:51.762Z,13.10
2017-09-01T17:36:19.303Z,12.60
2017-09-01T17:38:46.813Z,13.33
2017-09-01T17:41:14.387Z,13.50
2017-09-01T17:43:41.891Z,15.17
2017-09-01T17:46:10.174Z,14.30
2017-09-01T17:48:37.710Z,13.60
2017-09-01T17:51:05.221Z,16.10
2017-09-01T17:53:32.771Z,14.60
2017-09-01T17:56:00.324Z,14.87
2017-09-01T17:58:27.862Z,15.63
2017-09-01T18:00:55.444Z,15.07
2017-09-01T18:03:22.976Z,16.23
2017-09-01T18:05:50.483Z,14.97
2017-09-01T18:08:17.984Z,16.37
2017-09-01T18:10:45.537Z,15.97
2017-09-01T18:13:13.045Z,16.70
2017-09-01T18:15:40.574Z,17.30
2017-09-01T18:18:08.119Z,17.30
2017-09-01T18:20:36.406Z,17.40
2017-09-01T18:23:03.954Z,17.77
2017-09-01T18:25:31.456Z,17.03
2017-09-01T18:27:58.955Z,18.10
2017-09-01T18:30:27.075Z,18.73
2017-09-01T18:32:54.596Z,17.43
2017-09-01T18:35:22.097Z,17.00
2017-09-01T18:37:49.642Z,20.03
2017-09-01T18:40:17.148Z,16.93
2017-09-01T18:42:44.673Z,19.73
2017-09-01T18:45:12.210Z,18.03
2017-09-01T18:47:39.739Z,17.90
2017-09-01T18:50:07.282Z,19.23
2017-09-01T18:52:34.821Z,19.40
2017-09-01T18:55:02.338Z,18.90
2017-09-01T18:57:29.879Z,18.67
2017-09-01T18:59:57.402Z,19.00
2017-09-01T19:02:24.928Z,18.07
2017-09-01T19:04:52.494Z,19.37
2017-09-01T19:07:20.050Z,19.70
2017-09-01T19:09:47.578Z,20.80
2017-09-01T19:12:15.153Z,20.10
2017-09-01T19:14:42.706Z,20.10
2017-09-01T19:17:10.204Z,20.63
2017-09-01T19:19:37.724Z,20.23
2017-09-01T19:22:05.265Z,20.43
2017-09-01T19:24:32.768Z,22.60
2017-09-01T19:27:00.322Z,20.93
2017-09-01T19:29:27.861Z,21.40
2017-09-01T19:31:56.053Z,21.20
2017-09-01T19:34:23.619Z,20.17
2017-09-01T19:36:51.171Z,18.53
2017-09-01T19:39:18.745Z,21.30
2017-09-01T19:41:46.252Z,20.40
2017-09-01T19:44:13.789Z,20.50
2017-09-01T19:46:41.327Z,22.27
2017-09-01T19:49:08.845Z,22.57
2017-09-01T19:51:36.403Z,19.97
2017-09-01T19:54:03.930Z,21.63
2017-09-01T19:56:31.455Z,21.30
2017-09-01T19:58:58.993Z,21.50
2017-09-01T20:01:26.503Z,23.53
2017-09-01T20:03:54.026Z,23.70
2017-09-01T20:06:21.585Z,23.23
2017-09-01T20:08:49.101Z,24.17
2017-09-01T20:11:16.629Z,25.00
2017-09-01T20:13:44.161Z,25.10
2017-09-01T20:16:11.685Z,24.33
2017-09-01T20:18:39.187Z,23.90
2017-09-01T20:21:06.725Z,23.97
2017-09-01T20:23:34.228Z,25.10
2017-09-01T20:26:01.738Z,25.30
2017-09-01T20:28:29.275Z,24.50
2017-09-01T20:30:57.576Z,24.17
2017-09-01T20:33:25.099Z,24.47
2017-09-01T20:35:52.628Z,24.90
2017-09-01T20:38:20.133Z,27.53
2017-09-01T20:40:47.635Z,26.60
2017-09-01T20:43:15.166Z,25.23
2017-09-01T20:45:42.675Z,24.53
2017-09-01T20:48:10.203Z,25.03
2017-09-01T20:50:37.731Z,26.10
2017-09-01T20:53:05.232Z,26.80
2017-09-01T20:55:32.755Z,25.47
2017-09-01T20:58:00.308Z,25.77
2017-09-01T21:00:27.841Z,25.03
2017-09-01T21:02:56.112Z,27.00
2017-09-01T21:05:23.666Z,27.43
2017-09-01T21:07:51.195Z,26.53
2017-09-01T21:10:18.695Z,26.87
2017-09-01T21:12:46.259Z,27.27
2017-09-01T21:15:13.774Z,30.97
2017-09-01T21:17:41.306Z,28.20
2017-09-01T21:20:08.840Z,27.57
2017-09-01T21:22:36.420Z,29.63
2017-09-01T21:25:03.924Z,30.40
2017-09-01T21:27:31.475Z,29.57
2017-09-01T21:29:58.994Z,30.83
2017-09-01T21:32:26.565Z,29.73
2017-09-01T21:34:54.107Z,30.00
2017-09-01T21:37:21.625Z,29.80
2017-09-01T21:39:49.235Z,30.30
2017-09-01T21:42:16.780Z,30.60
2017-09-01T21:44:44.280Z,30.90
2017-09-01T21:47:11.801Z,33.00
2017-09-01T21:49:40.262Z,33.00
2017-09-01T21:52:07.849Z,34.27
2017-09-01T21:54:35.362Z,33.13
2017-09-01T21:57:02.896Z,31.37
2017-09-01T21:59:30.395Z,30.80
2017-09-01T22:01:57.914Z,32.70
2017-09-01T22:04:25.546Z,33.03
2017-09-01T22:06:53.048Z,30.00
2017-09-01T22:09:20.557Z,31.37
2017-09-01T22:11:48.105Z,31.87
2017-09-01T22:14:15.631Z,32.40
2017-09-01T22:16:43.146Z,33.17
2017-09-01T22:19:10.694Z,32.17
2017-09-01T22:21:38.222Z,33.63
2017-09-01T22:24:05.748Z,30.70
2017-09-01T22:26:33.372Z,31.17
2017-09-01T22:29:01.086Z,30.87
2017-09-01T22:31:28.602Z,32.63
2017-09-01T22:33:56.128Z,33.23
2017-09-01T22:36:23.655Z,33.13
2017-09-01T22:38:51.169Z,32.27
2017-09-01T22:41:18.710Z,33.13
2017-09-01T22:43:46.236Z,35.13
2017-09-01T22:46:13.758Z,35.50
2017-09-01T22:48:41.311Z,34.27
2017-09-01T22:51:08.815Z,37.10
2017-09-01T22:53:36.329Z,36.40
2017-09-01T22:56:03.869Z,39.43
2017-09-01T22:58:31.395Z,37.03
2017-09-01T23:00:58.993Z,36.20
2017-09-01T23:03:26.523Z,39.20
2017-09-01T23:05:54.024Z,39.97
2017-09-01T23:08:21.524Z,39.77
2017-09-01T23:10:49.074Z,37.20
2017-09-01T23:13:16.599Z,39.10
2017-09-01T23:15:44.118Z,38.13
2017-09-01T23:18:11.704Z,39.00
2017-09-01T23:20:39.203Z,39.47
2017-09-01T23:23:06.709Z,36.20
2017-09-01T23:25:34.262Z,38.57
2017-09-01T23:28:01.764Z,39.00
2017-09-01T23:30:30.052Z,39.80
2017-09-01T23:32:57.598Z,43.10
2017-09-01T23:35:25.101Z,41.67
2017-09-01T23:37:52.599Z,41.77
2017-09-01T23:40:20.137Z,41.27
2017-09-01T23:42:47.641Z,43.77
2017-09-01T23:45:15.162Z,46.17
2017-09-01T23:47:42.720Z,42.37
2017-09-01T23:50:10.237Z,45.30
2017-09-01T23:52:37.735Z,44.10
2017-09-01T23:55:05.286Z,44.80
2017-09-01T23:57:32.788Z,45.87
